Time;durP1;ratioP1;P1;durP2;ratioP2;P2;SDS_P1;SDS_P2;PMS_P1;PMS_P2;Temp;Humidity;BMP_temperature;BMP_pressure;BME280_temperature;BME280_humidity;BME280_pressure;Samples;Min_cycle;Max_cycle;Signal;HPM_P1;HPM_P2
2021/05/18 00:02:58;;;;;;;2.47;1.08;;;12.20;88.00;;;;;;5016107;28;20060;-83
2021/05/18 00:12:49;;;;;;;2.70;1.20;;;12.10;87.60;;;;;;5015957;28;20044;-82
2021/05/18 00:18:40;;;;;;;3.28;1.80;;;11.90;87.30;;;;;;5015652;28;20414;-84
2021/05/18 00:24:29;;;;;;;3.88;1.67;;;11.80;87.50;;;;;;5015735;28;20064;-84
2021/05/18 00:30:19;;;;;;;5.50;2.05;;;11.80;87.90;;;;;;5015657;28;20029;-84
2021/05/18 00:36:09;;;;;;;4.22;1.98;;;11.80;87.90;;;;;;5015573;28;20490;-82
2021/05/18 00:41:58;;;;;;;8.98;2.70;;;11.70;88.10;;;;;;5015137;28;20052;-82
2021/05/18 00:47:46;;;;;;;8.48;2.55;;;11.70;88.00;;;;;;5015354;28;20048;-83
2021/05/18 00:53:39;;;;;;;5.88;2.58;;;11.70;88.40;;;;;;5014968;28;20032;-83
2021/05/18 00:59:27;;;;;;;6.13;2.22;;;11.80;88.60;;;;;;5014824;28;20041;-83
2021/05/18 01:05:19;;;;;;;5.72;2.30;;;12.00;88.80;;;;;;5014984;28;20068;-82
2021/05/18 01:15:09;;;;;;;6.13;2.88;;;12.10;88.90;;;;;;5014959;28;20041;-83
2021/05/18 01:21:00;;;;;;;8.15;2.88;;;12.20;88.90;;;;;;5014421;28;20045;-83
2021/05/18 01:26:49;;;;;;;3.70;1.88;;;12.20;88.50;;;;;;5013754;28;20084;-83
2021/05/18 01:32:40;;;;;;;2.08;1.02;;;12.20;88.70;;;;;;5014579;28;20045;-83
2021/05/18 01:38:42;;;;;;;2.40;1.55;;;12.20;88.90;;;;;;5014405;28;20041;-83
2021/05/18 01:44:31;;;;;;;9.80;2.80;;;12.30;89.20;;;;;;5014401;28;20048;-82
2021/05/18 01:50:22;;;;;;;3.22;1.88;;;12.30;89.00;;;;;;5014262;28;20541;-82
2021/05/18 02:02:03;;;;;;;5.03;2.22;;;12.40;89.20;;;;;;5013895;28;20125;-83
2021/05/18 02:07:56;;;;;;;3.78;1.90;;;12.40;89.10;;;;;;5013965;28;20033;-83
2021/05/18 02:17:52;;;;;;;4.38;2.00;;;12.40;89.30;;;;;;5013876;28;20033;-83
2021/05/18 02:29:48;;;;;;;4.70;2.00;;;12.50;89.60;;;;;;5013826;28;20056;-83
2021/05/18 02:35:36;;;;;;;3.92;1.38;;;12.50;89.80;;;;;;5013514;28;20052;-83
2021/05/18 02:41:25;;;;;;;4.57;2.08;;;12.50;89.70;;;;;;5017371;28;20081;-83
2021/05/18 02:53:02;;;;;;;1.92;1.60;;;12.50;89.20;;;;;;5017541;28;20360;-84
2021/05/18 02:59:12;;;;;;;5.00;1.90;;;12.50;89.50;;;;;;5017090;28;20064;-84
2021/05/18 03:05:02;;;;;;;1.75;1.27;;;12.50;89.70;;;;;;5016994;28;20072;-83
2021/05/18 03:10:51;;;;;;;5.40;1.95;;;12.40;89.40;;;;;;5016895;28;20033;-83
2021/05/18 03:20:41;;;;;;;2.25;1.55;;;12.40;89.70;;;;;;5016824;28;20101;-84
2021/05/18 03:26:30;;;;;;;4.43;2.03;;;12.40;90.00;;;;;;5016849;28;20032;-84
2021/05/18 03:44:25;;;;;;;16.27;8.80;;;12.50;90.00;;;;;;5016582;28;20444;-83
2021/05/18 04:38:54;;;;;;;6.03;2.35;;;12.80;90.20;;;;;;5015470;28;20104;-85
2021/05/18 05:09:25;;;;;;;9.00;3.13;;;12.70;89.80;;;;;;5016343;28;20025;-85
2021/05/18 05:15:14;;;;;;;7.60;2.78;;;12.80;90.20;;;;;;5016301;28;20489;-85
2021/05/18 05:21:03;;;;;;;5.38;2.20;;;13.00;90.30;;;;;;5016520;28;20410;-86
2021/05/18 05:26:56;;;;;;;6.85;1.98;;;13.00;90.00;;;;;;5015203;28;20524;-88
2021/05/18 05:32:44;;;;;;;8.23;2.30;;;13.00;90.20;;;;;;5014478;28;20097;-86
2021/05/18 05:38:34;;;;;;;3.45;1.63;;;13.20;90.20;;;;;;5014985;28;20088;-84
2021/05/18 05:44:23;;;;;;;5.03;2.20;;;13.20;90.30;;;;;;5014120;28;20037;-85
2021/05/18 05:50:11;;;;;;;6.03;2.45;;;13.30;90.00;;;;;;5015151;28;20029;-84
2021/05/18 05:56:00;;;;;;;4.00;2.00;;;13.10;89.50;;;;;;5014465;28;20088;-83
2021/05/18 06:01:50;;;;;;;4.22;2.10;;;13.10;90.10;;;;;;5014089;28;20044;-85
2021/05/18 06:07:39;;;;;;;4.85;2.15;;;13.10;89.90;;;;;;5014067;28;20052;-84
2021/05/18 06:47:39;;;;;;;5.63;2.58;;;14.40;90.50;;;;;;5013431;28;20449;-86
2021/05/18 06:53:27;;;;;;;5.90;1.98;;;14.40;90.00;;;;;;5013378;28;20025;-84
2021/05/18 07:05:14;;;;;;;4.05;1.90;;;14.80;91.00;;;;;;5013484;28;20033;-84
2021/05/18 07:11:02;;;;;;;4.47;2.17;;;14.90;90.20;;;;;;5013511;28;20441;-85
2021/05/18 07:16:52;;;;;;;7.10;2.30;;;14.80;90.20;;;;;;5013157;28;20527;-85
2021/05/18 07:19:19;;;;;;;5.28;2.38;;;15.10;90.90;;;;;;5012838;28;20514;-84
2021/05/18 07:25:08;;;;;;;4.57;2.10;;;15.50;90.40;;;;;;5013744;28;20085;-85
2021/05/18 07:30:58;;;;;;;5.05;2.10;;;15.50;90.10;;;;;;5016682;28;20028;-85
2021/05/18 07:36:47;;;;;;;3.45;2.00;;;15.70;90.40;;;;;;5016709;28;20091;-85
2021/05/18 07:42:37;;;;;;;1.75;1.08;;;16.10;90.30;;;;;;5016337;28;20556;-86
2021/05/18 07:48:32;;;;;;;4.05;2.03;;;16.10;89.90;;;;;;5016493;28;20477;-83
2021/05/18 08:06:22;;;;;;;3.95;1.63;;;16.50;89.10;;;;;;5016094;28;20029;-86
2021/05/18 08:12:10;;;;;;;2.88;1.48;;;16.20;86.40;;;;;;5015821;28;20393;-84
2021/05/18 10:37:59;;;;;;;1.08;0.68;;;15.50;70.60;;;;;;5013516;28;20425;-84
2021/05/18 10:44:05;;;;;;;2.70;0.90;;;13.50;78.20;;;;;;5013506;28;20574;-83
2021/05/18 10:49:54;;;;;;;2.83;1.10;;;13.00;84.40;;;;;;5013425;28;20048;-83
2021/05/18 10:56:10;;;;;;;0.73;0.70;;;13.10;86.20;;;;;;5013404;28;20040;-83
2021/05/18 11:02:12;;;;;;;2.58;1.30;;;13.40;87.90;;;;;;5017300;28;20056;-83
2021/05/18 11:08:03;;;;;;;2.30;1.30;;;13.80;90.10;;;;;;5017001;28;20033;-83
2021/05/18 11:13:56;;;;;;;6.75;2.20;;;14.60;91.40;;;;;;5016895;28;20033;-83
2021/05/18 11:25:58;;;;;;;2.20;1.58;;;17.60;91.10;;;;;;5016671;28;20402;-85
2021/05/18 11:31:47;;;;;;;5.65;1.80;;;17.70;90.80;;;;;;5016413;28;20064;-85
2021/05/18 11:37:37;;;;;;;4.30;1.90;;;19.00;91.20;;;;;;5016406;28;20036;-82
2021/05/18 11:43:35;;;;;;;4.82;2.10;;;19.10;89.40;;;;;;5016457;28;20088;-82
2021/05/18 11:49:24;;;;;;;5.07;1.77;;;17.80;87.90;;;;;;5016239;28;20033;-82
2021/05/18 11:55:17;;;;;;;1.92;1.50;;;17.20;90.00;;;;;;5016374;28;20099;-82
2021/05/18 12:01:07;;;;;;;1.50;1.35;;;17.20;91.20;;;;;;5015971;28;20102;-82
2021/05/18 12:07:00;;;;;;;1.48;1.38;;;17.80;92.50;;;;;;5016122;28;20045;-83
2021/05/18 12:12:47;;;;;;;2.22;1.40;;;18.20;91.20;;;;;;5015435;28;20033;-82
2021/05/18 12:18:38;;;;;;;1.50;1.40;;;18.90;92.60;;;;;;5015564;28;20029;-82
2021/05/18 12:28:28;;;;;;;2.42;1.50;;;21.70;91.90;;;;;;5015750;28;20132;-84
2021/05/18 12:34:37;;;;;;;2.90;1.65;;;23.80;94.00;;;;;;5015532;28;20436;-84
2021/05/18 12:40:33;;;;;;;3.33;1.10;;;24.30;89.80;;;;;;5015382;28;20048;-83
2021/05/18 12:46:23;;;;;;;3.50;1.65;;;22.40;86.70;;;;;;5015138;28;20021;-83
2021/05/18 12:52:15;;;;;;;5.13;2.03;;;21.10;88.50;;;;;;5015114;28;20103;-84
2021/05/18 12:58:06;;;;;;;2.90;1.65;;;20.40;91.20;;;;;;5015666;28;20033;-84
2021/05/18 13:04:11;;;;;;;4.45;1.90;;;21.90;96.30;;;;;;5015127;28;20481;-83
2021/05/18 13:10:07;;;;;;;2.42;1.48;;;25.50;93.00;;;;;;5015007;28;20045;-86
2021/05/18 13:16:24;;;;;;;2.45;1.52;;;25.00;91.10;;;;;;5014869;28;20496;-89
2021/05/18 13:22:19;;;;;;;1.10;1.10;;;25.60;93.70;;;;;;5014391;28;20516;-86
2021/05/18 13:28:22;;;;;;;1.98;1.15;;;27.90;92.20;;;;;;5014193;28;20393;-86
2021/05/18 13:34:12;;;;;;;1.80;1.00;;;28.70;88.10;;;;;;5017927;28;20049;-87
2021/05/18 13:40:01;;;;;;;2.05;1.20;;;27.50;84.70;;;;;;5014940;28;20045;-86
2021/05/18 13:45:50;;;;;;;1.35;1.10;;;25.80;82.80;;;;;;5015365;28;20383;-87
2021/05/18 13:52:07;;;;;;;2.47;1.20;;;25.90;88.70;;;;;;5014282;28;20164;-87
2021/05/18 13:57:56;;;;;;;3.03;1.33;;;25.40;89.20;;;;;;5014021;28;20036;-89
2021/05/18 14:03:44;;;;;;;4.15;1.65;;;24.00;85.20;;;;;;5014050;28;20038;-89
2021/05/18 14:09:39;;;;;;;1.90;1.60;;;26.70;90.60;;;;;;5013886;28;20113;-89
2021/05/18 14:15:28;;;;;;;4.05;1.50;;;30.80;94.20;;;;;;5013742;28;20045;-88
2021/05/18 14:21:19;;;;;;;2.17;1.58;;;31.50;78.30;;;;;;5013689;28;20060;-87
2021/05/18 14:31:26;;;;;;;3.47;1.50;;;34.60;90.50;;;;;;5013929;28;20117;-88
2021/05/18 14:55:41;;;;;;;2.97;1.50;;;39.80;82.70;;;;;;5017546;28;20029;-92
2021/05/18 15:01:29;;;;;;;4.32;1.92;;;39.30;65.30;;;;;;5017090;28;20172;-87
2021/05/18 15:07:18;;;;;;;4.47;1.10;;;35.80;64.50;;;;;;5017030;28;20041;-89
2021/05/18 15:13:07;;;;;;;4.10;1.98;;;32.00;78.60;;;;;;5017137;28;20413;-88
2021/05/18 15:19:04;;;;;;;3.38;1.70;;;29.80;70.40;;;;;;5017042;28;20033;-87
2021/05/18 15:24:53;;;;;;;2.95;1.00;;;29.40;83.60;;;;;;5016985;28;20083;-87
2021/05/18 15:30:42;;;;;;;2.47;1.00;;;28.80;70.20;;;;;;5016929;28;20029;-88
2021/05/18 15:36:30;;;;;;;2.20;1.40;;;25.50;72.20;;;;;;5016558;28;20053;-87
2021/05/18 15:42:19;;;;;;;1.08;1.02;;;23.00;73.90;;;;;;5016696;28;20068;-87
2021/05/18 15:48:08;;;;;;;2.83;0.90;;;20.60;73.10;;;;;;5016641;28;20076;-89
2021/05/18 15:53:57;;;;;;;5.93;2.03;;;16.40;70.60;;;;;;5016524;28;20045;-87
2021/05/18 15:59:49;;;;;;;4.05;2.05;;;15.30;80.80;;;;;;5016015;28;20084;-86
2021/05/18 16:05:38;;;;;;;3.58;1.60;;;15.00;82.70;;;;;;5016079;28;20029;-87
2021/05/18 16:11:28;;;;;;;4.75;1.75;;;14.70;85.80;;;;;;5019286;28;20036;-88
2021/05/18 16:17:20;;;;;;;5.30;1.60;;;14.40;86.10;;;;;;5023477;28;20045;-87
2021/05/18 16:23:12;;;;;;;4.15;1.67;;;14.00;87.10;;;;;;5023876;28;20033;-86
2021/05/18 16:29:01;;;;;;;14.88;8.35;;;13.50;88.30;;;;;;5021309;28;20132;-85
2021/05/18 16:34:54;;;;;;;4.70;1.80;;;13.50;91.10;;;;;;5022699;28;20025;-86
2021/05/18 16:40:43;;;;;;;3.13;1.35;;;16.30;95.80;;;;;;5024546;28;20056;-86
2021/05/18 16:46:33;;;;;;;3.85;1.58;;;16.20;90.20;;;;;;5024383;28;20041;-87
2021/05/18 16:52:21;;;;;;;2.28;1.67;;;14.60;90.60;;;;;;5022531;28;20032;-82
2021/05/18 16:58:10;;;;;;;2.15;1.20;;;13.90;92.00;;;;;;5022732;28;20176;-82
2021/05/18 17:04:00;;;;;;;3.17;1.60;;;13.60;93.20;;;;;;5022431;28;20542;-84
2021/05/18 17:09:49;;;;;;;4.50;2.00;;;13.30;93.40;;;;;;5014893;28;20033;-84
2021/05/18 17:15:38;;;;;;;9.75;5.07;;;13.20;93.80;;;;;;5014495;28;20041;-84
2021/05/18 17:21:27;;;;;;;6.60;2.67;;;13.00;94.20;;;;;;5014416;28;20056;-83
2021/05/18 17:27:15;;;;;;;6.82;2.03;;;12.80;94.10;;;;;;5014572;28;20168;-83
2021/05/18 17:33:03;;;;;;;3.70;1.63;;;12.20;93.20;;;;;;5014351;28;20065;-83
2021/05/18 17:38:55;;;;;;;7.47;2.25;;;11.60;93.30;;;;;;5014440;28;20041;-83
2021/05/18 17:44:43;;;;;;;6.80;2.28;;;11.40;94.20;;;;;;5014241;28;20501;-84
2021/05/18 17:50:32;;;;;;;6.55;2.13;;;11.70;94.80;;;;;;5014261;28;20076;-85
2021/05/18 17:56:21;;;;;;;6.00;1.95;;;11.70;94.80;;;;;;5014148;28;20037;-85
2021/05/18 18:02:11;;;;;;;8.15;2.50;;;12.10;95.40;;;;;;5013724;28;20048;-85
2021/05/18 18:08:00;;;;;;;4.10;1.63;;;12.30;94.60;;;;;;5013701;28;20450;-88
2021/05/18 18:13:49;;;;;;;6.00;2.03;;;12.10;94.30;;;;;;5013650;28;20107;-86
2021/05/18 18:19:40;;;;;;;4.47;2.15;;;11.80;94.70;;;;;;5013609;28;20029;-84
2021/05/18 18:25:29;;;;;;;6.78;2.00;;;11.70;94.90;;;;;;5013767;28;20033;-84
2021/05/18 18:35:06;;;;;;;6.15;2.05;;;11.60;94.90;;;;;;5013871;28;20100;-83
2021/05/18 18:40:55;;;;;;;8.40;2.70;;;11.40;94.90;;;;;;5013428;28;20084;-83
2021/05/18 18:46:44;;;;;;;7.70;2.72;;;11.40;95.30;;;;;;5013734;28;20045;-83
2021/05/18 18:58:27;;;;;;;6.35;2.30;;;11.20;95.10;;;;;;5013564;28;20041;-85
2021/05/18 19:04:49;;;;;;;5.57;2.03;;;11.00;95.10;;;;;;5013560;28;20024;-89
2021/05/18 19:11:28;;;;;;;8.30;2.70;;;10.80;95.00;;;;;;5013396;28;20165;-88
2021/05/18 19:18:06;;;;;;;;;;;;;;;;;;;;;
2021/05/18 19:28:14;;;;;;;9.15;2.70;;;10.50;95.40;;;;;;5016543;28;20037;-85
2021/05/18 19:50:11;;;;;;;8.40;3.28;;;10.50;95.60;;;;;;5016518;28;20083;-86
2021/05/18 19:56:03;;;;;;;9.85;3.42;;;10.50;95.50;;;;;;5016334;28;20084;-85
2021/05/18 20:08:22;;;;;;;9.50;3.20;;;10.30;95.50;;;;;;5016115;28;20159;-85
2021/05/18 20:20:18;;;;;;;11.00;4.28;;;10.30;95.80;;;;;;5015598;28;20040;-84
2021/05/18 20:26:07;;;;;;;10.27;3.85;;;10.40;95.90;;;;;;5015475;28;20029;-84
2021/05/18 20:31:56;;;;;;;9.82;4.05;;;10.50;96.00;;;;;;5015044;28;20497;-82
2021/05/18 20:43:52;;;;;;;11.77;4.43;;;10.50;95.90;;;;;;5015210;28;20041;-83
2021/05/18 20:49:40;;;;;;;9.77;3.17;;;10.50;95.90;;;;;;5015295;28;20090;-83
2021/05/18 20:55:29;;;;;;;9.88;3.65;;;10.60;96.00;;;;;;5015049;28;20106;-85
2021/05/18 21:01:20;;;;;;;11.05;3.92;;;10.60;96.00;;;;;;5014953;28;20100;-86
2021/05/18 21:07:22;;;;;;;11.68;5.50;;;10.60;95.90;;;;;;5016235;28;20057;-87
2021/05/18 21:19:17;;;;;;;17.38;6.78;;;10.40;95.50;;;;;;5014897;28;20477;-86
2021/05/18 21:25:07;;;;;;;15.02;6.20;;;10.30;95.50;;;;;;5014808;28;20064;-86
2021/05/18 21:30:57;;;;;;;13.27;4.50;;;10.10;95.50;;;;;;5014454;28;20037;-85
2021/05/18 21:40:59;;;;;;;12.73;3.58;;;9.90;95.50;;;;;;5014435;28;20057;-85
2021/05/18 21:46:47;;;;;;;11.27;4.05;;;9.70;95.40;;;;;;5014473;28;20080;-85
2021/05/18 21:52:36;;;;;;;10.80;4.05;;;9.60;95.50;;;;;;5014214;28;20084;-86
2021/05/18 21:58:24;;;;;;;10.48;3.88;;;9.50;95.50;;;;;;5014019;28;20386;-85
2021/05/18 22:04:12;;;;;;;16.38;5.28;;;9.40;95.60;;;;;;5014769;28;20076;-84
2021/05/18 22:10:22;;;;;;;13.90;5.13;;;9.30;95.60;;;;;;5014167;28;20102;-84
2021/05/18 22:28:07;;;;;;;15.00;4.88;;;9.10;95.50;;;;;;5013929;28;20037;-84
2021/05/18 22:33:55;;;;;;;13.07;4.90;;;9.00;95.50;;;;;;5013915;28;20552;-84
2021/05/18 22:43:44;;;;;;;14.45;5.30;;;8.80;95.60;;;;;;5013584;28;20190;-84
2021/05/18 22:49:32;;;;;;;10.85;4.68;;;8.70;95.60;;;;;;5013507;28;20552;-84
2021/05/18 22:55:22;;;;;;;16.05;5.93;;;8.70;95.70;;;;;;5014960;28;20057;-84
2021/05/18 23:01:11;;;;;;;17.40;6.47;;;8.70;95.90;;;;;;5017365;28;20092;-83
2021/05/18 23:06:59;;;;;;;15.57;5.80;;;8.70;95.80;;;;;;5017148;28;20037;-83
2021/05/18 23:12:48;;;;;;;16.40;6.53;;;8.70;95.60;;;;;;5017053;28;20033;-83
2021/05/18 23:18:38;;;;;;;14.60;5.70;;;8.60;95.60;;;;;;5017145;28;20029;-84
2021/05/18 23:24:26;;;;;;;17.60;5.38;;;8.50;95.60;;;;;;5017048;28;20107;-85
2021/05/18 23:30:16;;;;;;;16.23;6.00;;;8.40;95.80;;;;;;5016931;28;20497;-85
2021/05/18 23:36:04;;;;;;;18.13;5.72;;;8.30;95.60;;;;;;5016832;28;20520;-84
2021/05/18 23:45:46;;;;;;;19.80;6.55;;;8.20;95.60;;;;;;5016689;28;20127;-85
2021/05/18 23:51:38;;;;;;;18.63;6.47;;;8.20;95.70;;;;;;5016585;28;20417;-85
2021/05/18 23:57:26;;;;;;;21.33;7.50;;;8.10;95.70;;;;;;5016126;28;20033;-85
